Terminal Aerodrome Forecast
Issued by NWS Bismarck, ND

Home | Current Version | Previous Version | Text Only | Print | Product List | Glossary Off
Versions: 1 2 3 4 5 6 7 8 9 10 11 12 13 14 15 16 17 18 19

000
FTUS43 KBIS 250200 AAA
TAFISN
TAF AMD
KISN 250219Z 2502/2524 31006KT P6SM SCT120
      TEMPO 2506/2508 BKN015
     FM250800 33008KT 5SM -SHSN BR BKN009 OVC012
     FM251600 33011KT P6SM -SHSN OVC015=

USA.gov is the U.S. government's official web portal to all federal, state and local government web resources and services.